createdAt,value
2022-10-07T00:13:57.198Z,20.70
2022-10-07T00:29:01.255Z,23.00
2022-10-07T00:44:32.508Z,29.10
2022-10-07T00:59:38.416Z,24.90
2022-10-07T01:15:12.281Z,17.20
2022-10-07T01:30:16.206Z,15.20
2022-10-07T01:45:22.047Z,15.60
2022-10-07T02:00:25.617Z,20.20
2022-10-07T02:15:38.834Z,17.10
2022-10-07T02:30:45.917Z,17.70
2022-10-07T02:46:17.667Z,24.00
2022-10-07T03:01:28.074Z,25.80
2022-10-07T03:16:33.041Z,18.50
2022-10-07T03:31:37.538Z,23.60
2022-10-07T03:46:41.006Z,28.40
2022-10-07T04:01:44.693Z,23.20
2022-10-07T04:16:48.192Z,22.60
2022-10-07T04:31:52.235Z,25.70
2022-10-07T04:46:57.095Z,25.70
2022-10-07T05:02:02.233Z,31.00
2022-10-07T05:17:06.584Z,30.70
2022-10-07T05:32:10.911Z,26.80
2022-10-07T05:47:14.542Z,31.30
2022-10-07T06:02:19.338Z,32.90
2022-10-07T06:17:23.310Z,74.30
2022-10-07T06:32:30.557Z,28.80
2022-10-07T06:47:34.820Z,35.90
2022-10-07T07:02:38.108Z,19.00
2022-10-07T07:17:42.818Z,18.30
2022-10-07T07:32:47.514Z,19.00
2022-10-07T07:47:51.072Z,18.90
2022-10-07T08:02:55.110Z,16.80
2022-10-07T08:17:59.371Z,14.70
2022-10-07T08:33:02.691Z,11.70
2022-10-07T08:48:22.826Z,11.40
2022-10-07T09:03:44.444Z,10.70
2022-10-07T09:18:53.640Z,15.20
2022-10-07T09:33:57.205Z,10.10
2022-10-07T09:49:05.440Z,11.60
2022-10-07T10:04:27.402Z,5.20
2022-10-07T10:19:34.958Z,6.60
2022-10-07T10:35:15.303Z,8.00
2022-10-07T10:50:29.354Z,4.60
2022-10-07T11:05:36.921Z,7.00
2022-10-07T11:20:48.608Z,7.60
2022-10-07T11:35:57.816Z,2.80
2022-10-07T11:51:04.632Z,7.90
2022-10-07T12:06:13.538Z,6.90
2022-10-07T12:21:17.050Z,5.10
2022-10-07T12:36:23.976Z,4.40
2022-10-07T12:51:39.758Z,7.10
2022-10-07T13:07:19.184Z,6.00
2022-10-07T13:22:24.604Z,6.70
2022-10-07T13:37:36.341Z,4.40
2022-10-07T13:52:47.526Z,4.80
2022-10-07T14:07:58.963Z,5.70
2022-10-07T14:23:06.202Z,11.40
2022-10-07T14:53:23.095Z,4.10
2022-10-07T15:08:26.681Z,8.70
2022-10-07T15:23:30.435Z,5.00
2022-10-07T15:38:33.455Z,2.90
2022-10-07T15:53:36.420Z,9.90
2022-10-07T16:08:40.112Z,52.60
2022-10-07T16:23:46.583Z,50.60
2022-10-07T16:38:52.605Z,44.80
2022-10-07T16:54:03.531Z,73.70
2022-10-07T17:09:07.075Z,153.70
2022-10-07T17:24:10.752Z,64.90
2022-10-07T17:39:14.998Z,41.80
2022-10-07T17:54:18.676Z,36.00
2022-10-07T18:21:58.895Z,81.70
2022-10-07T18:37:02.827Z,69.30
2022-10-07T18:52:07.604Z,80.70
2022-10-07T19:07:11.216Z,127.50
2022-10-07T19:22:17.268Z,172.80
2022-10-07T19:37:21.670Z,240.10
2022-10-07T19:52:26.683Z,296.50
2022-10-07T20:07:30.638Z,366.10
2022-10-07T20:22:34.708Z,366.60
2022-10-07T20:37:38.799Z,348.40
2022-10-07T20:52:42.597Z,280.50
2022-10-07T21:07:45.983Z,186.90
2022-10-07T21:22:49.955Z,198.30
2022-10-07T21:37:53.458Z,140.50
2022-10-07T21:52:56.878Z,159.60
2022-10-07T22:08:18.701Z,165.60
2022-10-07T22:23:21.813Z,192.00
2022-10-07T22:38:25.587Z,207.10
2022-10-07T22:53:28.824Z,161.10
2022-10-07T23:08:32.597Z,183.60
2022-10-07T23:23:37.374Z,189.50
2022-10-07T23:38:47.091Z,111.50
2022-10-07T23:53:50.968Z,61.10
